sensor_id;sensor_type;location;lat;lon;timestamp;P1;durP1;ratioP1;P2;durP2;ratioP2
52564;SDS011;38460;53.106;7.004;2022-07-01T00:01:58;4.65;;;1.70;;
52564;SDS011;38460;53.106;7.004;2022-07-01T00:04:23;7.68;;;2.10;;
52564;SDS011;38460;53.106;7.004;2022-07-01T00:06:53;4.18;;;1.88;;
52564;SDS011;38460;53.106;7.004;2022-07-01T00:09:19;10.23;;;2.85;;
52564;SDS011;38460;53.106;7.004;2022-07-01T00:11:46;7.82;;;2.00;;
52564;SDS011;38460;53.106;7.004;2022-07-01T00:14:12;7.85;;;2.60;;
52564;SDS011;38460;53.106;7.004;2022-07-01T00:16:37;7.85;;;2.45;;
52564;SDS011;38460;53.106;7.004;2022-07-01T00:19:03;7.78;;;2.38;;
52564;SDS011;38460;53.106;7.004;2022-07-01T00:21:30;6.35;;;2.15;;
52564;SDS011;38460;53.106;7.004;2022-07-01T00:23:56;10.48;;;2.70;;
52564;SDS011;38460;53.106;7.004;2022-07-01T00:26:21;8.52;;;2.20;;
52564;SDS011;38460;53.106;7.004;2022-07-01T00:28:47;6.20;;;1.80;;
52564;SDS011;38460;53.106;7.004;2022-07-01T00:31:13;6.07;;;1.60;;
52564;SDS011;38460;53.106;7.004;2022-07-01T00:33:38;4.57;;;1.50;;
52564;SDS011;38460;53.106;7.004;2022-07-01T00:36:04;2.03;;;1.20;;
52564;SDS011;38460;53.106;7.004;2022-07-01T00:38:30;4.13;;;1.38;;
52564;SDS011;38460;53.106;7.004;2022-07-01T00:40:56;4.53;;;1.45;;
52564;SDS011;38460;53.106;7.004;2022-07-01T00:43:22;6.68;;;2.30;;
52564;SDS011;38460;53.106;7.004;2022-07-01T00:45:49;2.60;;;1.42;;
52564;SDS011;38460;53.106;7.004;2022-07-01T00:48:16;3.33;;;1.45;;
52564;SDS011;38460;53.106;7.004;2022-07-01T00:50:43;2.38;;;1.25;;
52564;SDS011;38460;53.106;7.004;2022-07-01T00:53:09;4.22;;;1.45;;
52564;SDS011;38460;53.106;7.004;2022-07-01T00:55:35;3.63;;;1.20;;
52564;SDS011;38460;53.106;7.004;2022-07-01T00:58:01;2.97;;;1.35;;
52564;SDS011;38460;53.106;7.004;2022-07-01T01:00:27;4.32;;;1.30;;
52564;SDS011;38460;53.106;7.004;2022-07-01T01:02:53;2.00;;;1.08;;
52564;SDS011;38460;53.106;7.004;2022-07-01T01:05:19;2.97;;;1.52;;
52564;SDS011;38460;53.106;7.004;2022-07-01T01:07:48;3.58;;;1.08;;
52564;SDS011;38460;53.106;7.004;2022-07-01T01:10:17;2.83;;;1.10;;
52564;SDS011;38460;53.106;7.004;2022-07-01T01:12:43;4.00;;;1.30;;
52564;SDS011;38460;53.106;7.004;2022-07-01T01:15:09;4.20;;;1.20;;
52564;SDS011;38460;53.106;7.004;2022-07-01T01:17:42;4.80;;;1.38;;
52564;SDS011;38460;53.106;7.004;2022-07-01T01:20:07;3.63;;;1.95;;
52564;SDS011;38460;53.106;7.004;2022-07-01T01:22:33;3.33;;;1.20;;
52564;SDS011;38460;53.106;7.004;2022-07-01T01:24:59;3.58;;;1.83;;
52564;SDS011;38460;53.106;7.004;2022-07-01T01:27:25;2.83;;;1.90;;
52564;SDS011;38460;53.106;7.004;2022-07-01T01:29:51;3.67;;;1.40;;
52564;SDS011;38460;53.106;7.004;2022-07-01T01:32:16;3.35;;;1.58;;
52564;SDS011;38460;53.106;7.004;2022-07-01T01:34:42;3.35;;;1.48;;
52564;SDS011;38460;53.106;7.004;2022-07-01T01:37:08;3.90;;;1.20;;
52564;SDS011;38460;53.106;7.004;2022-07-01T01:39:34;3.63;;;1.10;;
52564;SDS011;38460;53.106;7.004;2022-07-01T01:42:04;2.33;;;1.10;;
52564;SDS011;38460;53.106;7.004;2022-07-01T01:44:31;2.03;;;1.13;;
52564;SDS011;38460;53.106;7.004;2022-07-01T01:46:57;2.13;;;1.20;;
52564;SDS011;38460;53.106;7.004;2022-07-01T01:49:23;3.78;;;1.10;;
52564;SDS011;38460;53.106;7.004;2022-07-01T01:51:48;1.67;;;1.10;;
52564;SDS011;38460;53.106;7.004;2022-07-01T01:54:14;3.10;;;1.25;;
52564;SDS011;38460;53.106;7.004;2022-07-01T01:56:40;2.58;;;1.40;;
52564;SDS011;38460;53.106;7.004;2022-07-01T01:59:05;3.00;;;1.10;;
52564;SDS011;38460;53.106;7.004;2022-07-01T02:01:32;3.05;;;1.27;;
52564;SDS011;38460;53.106;7.004;2022-07-01T02:03:57;4.93;;;1.52;;
52564;SDS011;38460;53.106;7.004;2022-07-01T02:06:24;2.72;;;1.10;;
52564;SDS011;38460;53.106;7.004;2022-07-01T02:08:50;4.45;;;1.10;;
52564;SDS011;38460;53.106;7.004;2022-07-01T02:11:16;3.00;;;1.23;;
52564;SDS011;38460;53.106;7.004;2022-07-01T02:13:41;2.72;;;1.20;;
52564;SDS011;38460;53.106;7.004;2022-07-01T02:16:09;2.35;;;0.90;;
52564;SDS011;38460;53.106;7.004;2022-07-01T02:18:36;1.45;;;1.08;;
52564;SDS011;38460;53.106;7.004;2022-07-01T02:21:01;2.33;;;1.02;;
52564;SDS011;38460;53.106;7.004;2022-07-01T02:23:27;1.98;;;1.08;;
52564;SDS011;38460;53.106;7.004;2022-07-01T02:25:54;2.10;;;0.80;;
52564;SDS011;38460;53.106;7.004;2022-07-01T02:28:20;1.73;;;1.00;;
52564;SDS011;38460;53.106;7.004;2022-07-01T02:30:46;1.80;;;0.85;;
52564;SDS011;38460;53.106;7.004;2022-07-01T02:33:12;2.13;;;0.93;;
52564;SDS011;38460;53.106;7.004;2022-07-01T02:35:38;1.55;;;1.00;;
52564;SDS011;38460;53.106;7.004;2022-07-01T02:38:05;2.05;;;1.00;;
52564;SDS011;38460;53.106;7.004;2022-07-01T02:40:33;1.73;;;1.00;;
52564;SDS011;38460;53.106;7.004;2022-07-01T02:42:59;2.53;;;1.10;;
52564;SDS011;38460;53.106;7.004;2022-07-01T02:45:25;3.03;;;0.90;;
52564;SDS011;38460;53.106;7.004;2022-07-01T02:47:51;2.08;;;1.20;;
52564;SDS011;38460;53.106;7.004;2022-07-01T02:50:17;2.55;;;1.05;;
52564;SDS011;38460;53.106;7.004;2022-07-01T02:52:44;3.78;;;1.17;;
52564;SDS011;38460;53.106;7.004;2022-07-01T02:55:10;2.95;;;1.02;;
52564;SDS011;38460;53.106;7.004;2022-07-01T02:57:37;2.70;;;1.08;;
52564;SDS011;38460;53.106;7.004;2022-07-01T03:00:04;2.67;;;1.20;;
52564;SDS011;38460;53.106;7.004;2022-07-01T03:02:32;1.63;;;1.08;;
52564;SDS011;38460;53.106;7.004;2022-07-01T03:04:59;2.42;;;1.10;;
52564;SDS011;38460;53.106;7.004;2022-07-01T03:07:25;2.45;;;1.40;;
52564;SDS011;38460;53.106;7.004;2022-07-01T03:09:51;1.98;;;1.02;;
52564;SDS011;38460;53.106;7.004;2022-07-01T03:12:17;2.80;;;1.38;;
52564;SDS011;38460;53.106;7.004;2022-07-01T03:17:30;1.83;;;1.20;;
52564;SDS011;38460;53.106;7.004;2022-07-01T03:19:57;2.67;;;1.20;;
52564;SDS011;38460;53.106;7.004;2022-07-01T03:22:27;4.50;;;1.23;;
52564;SDS011;38460;53.106;7.004;2022-07-01T03:24:55;1.98;;;1.23;;
52564;SDS011;38460;53.106;7.004;2022-07-01T03:27:20;3.85;;;1.42;;
52564;SDS011;38460;53.106;7.004;2022-07-01T03:29:47;3.20;;;1.33;;
52564;SDS011;38460;53.106;7.004;2022-07-01T03:32:13;1.90;;;1.30;;
52564;SDS011;38460;53.106;7.004;2022-07-01T03:34:40;2.75;;;1.40;;
52564;SDS011;38460;53.106;7.004;2022-07-01T03:37:07;2.70;;;1.55;;
52564;SDS011;38460;53.106;7.004;2022-07-01T03:39:35;3.25;;;1.50;;
52564;SDS011;38460;53.106;7.004;2022-07-01T03:42:02;3.42;;;1.60;;
52564;SDS011;38460;53.106;7.004;2022-07-01T03:44:29;4.30;;;1.88;;
52564;SDS011;38460;53.106;7.004;2022-07-01T03:46:55;4.45;;;2.45;;
52564;SDS011;38460;53.106;7.004;2022-07-01T03:49:21;4.15;;;2.28;;
52564;SDS011;38460;53.106;7.004;2022-07-01T03:51:47;3.58;;;2.00;;
52564;SDS011;38460;53.106;7.004;2022-07-01T03:54:13;3.22;;;1.83;;
52564;SDS011;38460;53.106;7.004;2022-07-01T03:57:04;3.65;;;1.98;;
52564;SDS011;38460;53.106;7.004;2022-07-01T03:59:32;4.88;;;2.10;;
52564;SDS011;38460;53.106;7.004;2022-07-01T04:02:01;3.85;;;2.10;;
52564;SDS011;38460;53.106;7.004;2022-07-01T04:04:27;4.10;;;2.30;;
52564;SDS011;38460;53.106;7.004;2022-07-01T04:06:53;4.43;;;2.25;;
52564;SDS011;38460;53.106;7.004;2022-07-01T04:09:20;4.35;;;2.63;;
52564;SDS011;38460;53.106;7.004;2022-07-01T04:11:47;3.53;;;2.40;;
52564;SDS011;38460;53.106;7.004;2022-07-01T04:14:14;4.57;;;2.25;;
52564;SDS011;38460;53.106;7.004;2022-07-01T04:16:40;3.75;;;2.58;;
52564;SDS011;38460;53.106;7.004;2022-07-01T04:19:07;3.63;;;2.40;;
52564;SDS011;38460;53.106;7.004;2022-07-01T04:21:33;4.07;;;2.90;;
52564;SDS011;38460;53.106;7.004;2022-07-01T04:24:17;4.55;;;2.58;;
52564;SDS011;38460;53.106;7.004;2022-07-01T04:26:43;4.00;;;2.45;;
52564;SDS011;38460;53.106;7.004;2022-07-01T04:29:10;4.35;;;2.67;;
52564;SDS011;38460;53.106;7.004;2022-07-01T04:31:36;5.57;;;2.92;;
52564;SDS011;38460;53.106;7.004;2022-07-01T04:34:03;5.38;;;3.22;;
52564;SDS011;38460;53.106;7.004;2022-07-01T04:36:30;6.75;;;3.78;;
52564;SDS011;38460;53.106;7.004;2022-07-01T04:38:55;8.20;;;4.35;;
52564;SDS011;38460;53.106;7.004;2022-07-01T04:41:22;5.53;;;4.55;;
52564;SDS011;38460;53.106;7.004;2022-07-01T04:44:06;6.97;;;5.30;;
52564;SDS011;38460;53.106;7.004;2022-07-01T04:46:32;7.68;;;5.30;;
52564;SDS011;38460;53.106;7.004;2022-07-01T04:48:58;8.77;;;5.75;;
52564;SDS011;38460;53.106;7.004;2022-07-01T04:51:24;7.88;;;5.55;;
52564;SDS011;38460;53.106;7.004;2022-07-01T04:53:49;9.07;;;6.15;;
52564;SDS011;38460;53.106;7.004;2022-07-01T04:56:15;8.50;;;6.15;;
52564;SDS011;38460;53.106;7.004;2022-07-01T04:58:41;9.43;;;6.80;;
52564;SDS011;38460;53.106;7.004;2022-07-01T05:01:07;11.35;;;8.15;;
52564;SDS011;38460;53.106;7.004;2022-07-01T05:03:33;10.75;;;7.30;;
52564;SDS011;38460;53.106;7.004;2022-07-01T05:05:59;8.65;;;6.78;;
52564;SDS011;38460;53.106;7.004;2022-07-01T05:08:25;13.25;;;8.50;;
52564;SDS011;38460;53.106;7.004;2022-07-01T05:10:51;12.93;;;8.95;;
52564;SDS011;38460;53.106;7.004;2022-07-01T05:13:17;11.32;;;8.50;;
52564;SDS011;38460;53.106;7.004;2022-07-01T05:15:43;13.48;;;9.30;;
52564;SDS011;38460;53.106;7.004;2022-07-01T05:18:08;20.02;;;11.43;;
52564;SDS011;38460;53.106;7.004;2022-07-01T05:20:53;18.02;;;11.90;;
52564;SDS011;38460;53.106;7.004;2022-07-01T05:23:37;18.20;;;12.73;;
52564;SDS011;38460;53.106;7.004;2022-07-01T05:26:03;17.52;;;11.77;;
52564;SDS011;38460;53.106;7.004;2022-07-01T05:28:29;20.85;;;13.95;;
52564;SDS011;38460;53.106;7.004;2022-07-01T05:30:55;21.83;;;13.65;;
52564;SDS011;38460;53.106;7.004;2022-07-01T05:33:21;19.65;;;12.82;;
52564;SDS011;38460;53.106;7.004;2022-07-01T05:35:51;22.75;;;14.27;;
52564;SDS011;38460;53.106;7.004;2022-07-01T05:38:18;20.48;;;15.25;;
52564;SDS011;38460;53.106;7.004;2022-07-01T05:40:43;21.95;;;15.00;;
52564;SDS011;38460;53.106;7.004;2022-07-01T05:43:09;22.80;;;14.95;;
52564;SDS011;38460;53.106;7.004;2022-07-01T05:45:35;21.33;;;15.57;;
52564;SDS011;38460;53.106;7.004;2022-07-01T05:48:01;22.85;;;15.57;;
52564;SDS011;38460;53.106;7.004;2022-07-01T05:50:26;22.50;;;14.82;;
52564;SDS011;38460;53.106;7.004;2022-07-01T05:52:52;25.42;;;15.55;;
52564;SDS011;38460;53.106;7.004;2022-07-01T05:55:18;22.77;;;15.55;;
52564;SDS011;38460;53.106;7.004;2022-07-01T05:57:43;20.70;;;15.40;;
52564;SDS011;38460;53.106;7.004;2022-07-01T06:00:09;22.17;;;15.50;;
52564;SDS011;38460;53.106;7.004;2022-07-01T06:02:36;23.30;;;15.68;;
52564;SDS011;38460;53.106;7.004;2022-07-01T06:05:02;22.63;;;15.57;;
52564;SDS011;38460;53.106;7.004;2022-07-01T06:07:29;24.20;;;15.82;;
52564;SDS011;38460;53.106;7.004;2022-07-01T06:09:55;22.00;;;16.00;;
52564;SDS011;38460;53.106;7.004;2022-07-01T06:12:22;23.65;;;16.38;;
52564;SDS011;38460;53.106;7.004;2022-07-01T06:14:48;23.10;;;15.70;;
52564;SDS011;38460;53.106;7.004;2022-07-01T06:17:14;20.92;;;14.32;;
52564;SDS011;38460;53.106;7.004;2022-07-01T06:19:40;24.90;;;15.45;;
52564;SDS011;38460;53.106;7.004;2022-07-01T06:22:06;24.02;;;15.27;;
52564;SDS011;38460;53.106;7.004;2022-07-01T06:24:32;22.60;;;15.35;;
52564;SDS011;38460;53.106;7.004;2022-07-01T06:26:58;24.73;;;16.45;;
52564;SDS011;38460;53.106;7.004;2022-07-01T06:29:25;23.58;;;16.30;;
52564;SDS011;38460;53.106;7.004;2022-07-01T06:31:52;24.02;;;16.30;;
52564;SDS011;38460;53.106;7.004;2022-07-01T06:34:18;27.10;;;16.58;;
52564;SDS011;38460;53.106;7.004;2022-07-01T06:36:44;20.83;;;15.20;;
52564;SDS011;38460;53.106;7.004;2022-07-01T06:39:09;24.42;;;16.63;;
52564;SDS011;38460;53.106;7.004;2022-07-01T06:41:35;24.85;;;17.10;;
52564;SDS011;38460;53.106;7.004;2022-07-01T06:44:01;24.27;;;16.30;;
52564;SDS011;38460;53.106;7.004;2022-07-01T06:46:29;23.50;;;16.58;;
52564;SDS011;38460;53.106;7.004;2022-07-01T06:48:56;26.52;;;17.67;;
52564;SDS011;38460;53.106;7.004;2022-07-01T06:51:23;26.27;;;18.77;;
52564;SDS011;38460;53.106;7.004;2022-07-01T06:53:49;24.42;;;16.48;;
52564;SDS011;38460;53.106;7.004;2022-07-01T06:56:15;23.52;;;17.30;;
52564;SDS011;38460;53.106;7.004;2022-07-01T06:58:41;25.23;;;17.40;;
52564;SDS011;38460;53.106;7.004;2022-07-01T07:01:08;24.67;;;17.60;;
52564;SDS011;38460;53.106;7.004;2022-07-01T07:03:33;24.58;;;16.35;;
52564;SDS011;38460;53.106;7.004;2022-07-01T07:05:59;22.48;;;16.58;;
52564;SDS011;38460;53.106;7.004;2022-07-01T07:08:26;22.45;;;16.10;;
52564;SDS011;38460;53.106;7.004;2022-07-01T07:10:55;22.38;;;15.77;;
52564;SDS011;38460;53.106;7.004;2022-07-01T07:13:22;20.63;;;15.65;;
52564;SDS011;38460;53.106;7.004;2022-07-01T07:15:48;24.80;;;17.25;;
52564;SDS011;38460;53.106;7.004;2022-07-01T07:18:13;22.90;;;16.35;;
52564;SDS011;38460;53.106;7.004;2022-07-01T07:20:39;22.33;;;16.10;;
52564;SDS011;38460;53.106;7.004;2022-07-01T07:23:05;18.75;;;14.27;;
52564;SDS011;38460;53.106;7.004;2022-07-01T07:25:31;22.20;;;15.45;;
52564;SDS011;38460;53.106;7.004;2022-07-01T07:27:57;19.98;;;15.63;;
52564;SDS011;38460;53.106;7.004;2022-07-01T07:30:23;18.42;;;14.55;;
52564;SDS011;38460;53.106;7.004;2022-07-01T07:32:49;20.70;;;14.68;;
52564;SDS011;38460;53.106;7.004;2022-07-01T07:35:14;20.15;;;14.25;;
52564;SDS011;38460;53.106;7.004;2022-07-01T07:37:41;19.13;;;15.60;;
52564;SDS011;38460;53.106;7.004;2022-07-01T07:40:07;22.02;;;16.23;;
52564;SDS011;38460;53.106;7.004;2022-07-01T07:42:39;22.10;;;15.20;;
52564;SDS011;38460;53.106;7.004;2022-07-01T07:45:05;19.45;;;14.55;;
52564;SDS011;38460;53.106;7.004;2022-07-01T07:47:32;18.88;;;13.70;;
52564;SDS011;38460;53.106;7.004;2022-07-01T07:49:59;20.38;;;14.35;;
52564;SDS011;38460;53.106;7.004;2022-07-01T07:52:24;21.20;;;15.98;;
52564;SDS011;38460;53.106;7.004;2022-07-01T07:54:50;19.08;;;14.63;;
52564;SDS011;38460;53.106;7.004;2022-07-01T07:57:16;19.35;;;14.65;;
52564;SDS011;38460;53.106;7.004;2022-07-01T07:59:42;17.75;;;13.85;;
52564;SDS011;38460;53.106;7.004;2022-07-01T08:02:07;19.95;;;14.32;;
52564;SDS011;38460;53.106;7.004;2022-07-01T08:04:33;18.33;;;13.63;;
52564;SDS011;38460;53.106;7.004;2022-07-01T08:06:59;21.58;;;14.95;;
52564;SDS011;38460;53.106;7.004;2022-07-01T08:09:25;18.45;;;14.65;;
52564;SDS011;38460;53.106;7.004;2022-07-01T08:11:51;22.02;;;15.13;;
52564;SDS011;38460;53.106;7.004;2022-07-01T08:14:17;18.00;;;14.27;;
52564;SDS011;38460;53.106;7.004;2022-07-01T08:16:43;17.90;;;13.60;;
52564;SDS011;38460;53.106;7.004;2022-07-01T08:19:08;18.38;;;13.07;;
52564;SDS011;38460;53.106;7.004;2022-07-01T08:21:34;17.90;;;13.50;;
52564;SDS011;38460;53.106;7.004;2022-07-01T08:24:00;18.85;;;14.80;;
52564;SDS011;38460;53.106;7.004;2022-07-01T08:26:26;19.33;;;14.23;;
52564;SDS011;38460;53.106;7.004;2022-07-01T08:28:52;19.95;;;14.50;;
52564;SDS011;38460;53.106;7.004;2022-07-01T08:31:18;18.80;;;14.30;;
52564;SDS011;38460;53.106;7.004;2022-07-01T08:33:44;18.75;;;14.23;;
52564;SDS011;38460;53.106;7.004;2022-07-01T08:36:09;18.02;;;13.18;;
52564;SDS011;38460;53.106;7.004;2022-07-01T08:38:36;18.45;;;14.73;;
52564;SDS011;38460;53.106;7.004;2022-07-01T08:41:02;20.33;;;14.98;;
52564;SDS011;38460;53.106;7.004;2022-07-01T08:43:29;17.45;;;14.25;;
52564;SDS011;38460;53.106;7.004;2022-07-01T08:45:55;16.95;;;13.43;;
52564;SDS011;38460;53.106;7.004;2022-07-01T08:48:24;17.83;;;12.85;;
52564;SDS011;38460;53.106;7.004;2022-07-01T08:50:49;16.45;;;12.15;;
52564;SDS011;38460;53.106;7.004;2022-07-01T08:53:15;15.13;;;11.75;;
52564;SDS011;38460;53.106;7.004;2022-07-01T08:55:41;16.63;;;12.55;;
52564;SDS011;38460;53.106;7.004;2022-07-01T08:58:26;15.02;;;11.70;;
52564;SDS011;38460;53.106;7.004;2022-07-01T09:00:53;16.25;;;11.90;;
52564;SDS011;38460;53.106;7.004;2022-07-01T09:03:36;15.80;;;12.10;;
52564;SDS011;38460;53.106;7.004;2022-07-01T09:06:01;15.63;;;12.43;;
52564;SDS011;38460;53.106;7.004;2022-07-01T09:08:27;15.02;;;11.65;;
52564;SDS011;38460;53.106;7.004;2022-07-01T09:10:53;17.63;;;12.32;;
52564;SDS011;38460;53.106;7.004;2022-07-01T09:13:19;12.73;;;11.35;;
52564;SDS011;38460;53.106;7.004;2022-07-01T09:15:45;16.90;;;12.80;;
52564;SDS011;38460;53.106;7.004;2022-07-01T09:18:12;16.38;;;12.45;;
52564;SDS011;38460;53.106;7.004;2022-07-01T09:20:40;14.32;;;10.82;;
52564;SDS011;38460;53.106;7.004;2022-07-01T09:23:08;15.48;;;10.07;;
52564;SDS011;38460;53.106;7.004;2022-07-01T09:25:36;13.07;;;10.32;;
52564;SDS011;38460;53.106;7.004;2022-07-01T09:28:14;12.60;;;10.13;;
52564;SDS011;38460;53.106;7.004;2022-07-01T09:30:48;12.32;;;9.73;;
52564;SDS011;38460;53.106;7.004;2022-07-01T09:33:17;11.98;;;9.10;;
52564;SDS011;38460;53.106;7.004;2022-07-01T09:35:47;12.10;;;9.60;;
52564;SDS011;38460;53.106;7.004;2022-07-01T09:38:17;10.95;;;8.95;;
52564;SDS011;38460;53.106;7.004;2022-07-01T09:40:51;11.25;;;9.00;;
52564;SDS011;38460;53.106;7.004;2022-07-01T09:43:28;12.57;;;8.68;;
52564;SDS011;38460;53.106;7.004;2022-07-01T09:48:47;11.93;;;8.15;;
52564;SDS011;38460;53.106;7.004;2022-07-01T09:51:12;10.35;;;6.75;;
52564;SDS011;38460;53.106;7.004;2022-07-01T09:53:40;8.57;;;7.10;;
52564;SDS011;38460;53.106;7.004;2022-07-01T09:56:07;11.32;;;7.35;;
52564;SDS011;38460;53.106;7.004;2022-07-01T09:58:33;10.88;;;6.72;;
52564;SDS011;38460;53.106;7.004;2022-07-01T10:01:00;9.38;;;6.13;;
52564;SDS011;38460;53.106;7.004;2022-07-01T10:03:27;9.45;;;6.72;;
52564;SDS011;38460;53.106;7.004;2022-07-01T10:14:04;8.38;;;5.80;;
52564;SDS011;38460;53.106;7.004;2022-07-01T10:16:31;7.95;;;5.38;;
52564;SDS011;38460;53.106;7.004;2022-07-01T10:18:59;9.40;;;5.85;;
52564;SDS011;38460;53.106;7.004;2022-07-01T10:24:12;8.15;;;6.00;;
52564;SDS011;38460;53.106;7.004;2022-07-01T10:26:39;9.40;;;6.47;;
52564;SDS011;38460;53.106;7.004;2022-07-01T10:31:59;8.88;;;5.50;;
52564;SDS011;38460;53.106;7.004;2022-07-01T10:34:33;11.57;;;6.45;;
52564;SDS011;38460;53.106;7.004;2022-07-01T10:37:04;8.05;;;5.88;;
52564;SDS011;38460;53.106;7.004;2022-07-01T10:42:18;8.75;;;5.22;;
52564;SDS011;38460;53.106;7.004;2022-07-01T10:45:17;6.93;;;4.93;;
52564;SDS011;38460;53.106;7.004;2022-07-01T10:47:38;7.05;;;4.70;;
52564;SDS011;38460;53.106;7.004;2022-07-01T10:50:05;5.97;;;4.47;;
52564;SDS011;38460;53.106;7.004;2022-07-01T10:52:33;6.72;;;5.25;;
52564;SDS011;38460;53.106;7.004;2022-07-01T10:54:58;9.02;;;4.00;;
52564;SDS011;38460;53.106;7.004;2022-07-01T10:57:43;8.70;;;4.20;;
52564;SDS011;38460;53.106;7.004;2022-07-01T11:02:36;10.07;;;5.20;;
52564;SDS011;38460;53.106;7.004;2022-07-01T11:05:04;7.00;;;4.53;;
52564;SDS011;38460;53.106;7.004;2022-07-01T11:07:35;7.13;;;5.10;;
52564;SDS011;38460;53.106;7.004;2022-07-01T11:10:04;6.72;;;4.95;;
52564;SDS011;38460;53.106;7.004;2022-07-01T11:12:32;8.35;;;4.82;;
52564;SDS011;38460;53.106;7.004;2022-07-01T11:14:59;11.48;;;4.72;;
52564;SDS011;38460;53.106;7.004;2022-07-01T11:17:30;11.70;;;4.72;;
52564;SDS011;38460;53.106;7.004;2022-07-01T11:19:57;8.15;;;4.75;;
52564;SDS011;38460;53.106;7.004;2022-07-01T11:22:24;7.97;;;4.63;;
52564;SDS011;38460;53.106;7.004;2022-07-01T11:24:55;6.28;;;4.28;;
52564;SDS011;38460;53.106;7.004;2022-07-01T11:27:26;6.63;;;3.80;;
52564;SDS011;38460;53.106;7.004;2022-07-01T11:29:53;10.23;;;4.90;;
52564;SDS011;38460;53.106;7.004;2022-07-01T11:32:28;7.20;;;4.35;;
52564;SDS011;38460;53.106;7.004;2022-07-01T11:34:56;5.53;;;3.65;;
52564;SDS011;38460;53.106;7.004;2022-07-01T11:37:22;5.47;;;3.75;;
52564;SDS011;38460;53.106;7.004;2022-07-01T11:40:11;5.78;;;3.38;;
52564;SDS011;38460;53.106;7.004;2022-07-01T11:42:38;6.68;;;4.45;;
52564;SDS011;38460;53.106;7.004;2022-07-01T11:45:05;8.55;;;4.25;;
52564;SDS011;38460;53.106;7.004;2022-07-01T11:47:31;10.02;;;4.63;;
52564;SDS011;38460;53.106;7.004;2022-07-01T11:49:57;7.35;;;4.47;;
52564;SDS011;38460;53.106;7.004;2022-07-01T11:52:24;6.68;;;4.25;;
52564;SDS011;38460;53.106;7.004;2022-07-01T11:54:54;7.20;;;4.15;;
52564;SDS011;38460;53.106;7.004;2022-07-01T11:57:23;4.20;;;3.78;;
52564;SDS011;38460;53.106;7.004;2022-07-01T11:59:53;7.65;;;3.75;;
52564;SDS011;38460;53.106;7.004;2022-07-01T12:02:20;5.95;;;4.10;;
52564;SDS011;38460;53.106;7.004;2022-07-01T12:04:48;8.75;;;3.72;;
52564;SDS011;38460;53.106;7.004;2022-07-01T12:07:15;5.47;;;3.63;;
52564;SDS011;38460;53.106;7.004;2022-07-01T12:09:44;7.47;;;3.75;;
52564;SDS011;38460;53.106;7.004;2022-07-01T12:12:20;5.53;;;3.85;;
52564;SDS011;38460;53.106;7.004;2022-07-01T12:14:49;7.00;;;4.63;;
52564;SDS011;38460;53.106;7.004;2022-07-01T12:17:25;8.02;;;4.22;;
52564;SDS011;38460;53.106;7.004;2022-07-01T12:19:52;6.13;;;3.83;;
52564;SDS011;38460;53.106;7.004;2022-07-01T12:22:20;5.05;;;3.42;;
52564;SDS011;38460;53.106;7.004;2022-07-01T12:24:52;5.72;;;3.22;;
52564;SDS011;38460;53.106;7.004;2022-07-01T12:27:29;6.20;;;3.10;;
52564;SDS011;38460;53.106;7.004;2022-07-01T12:29:57;7.30;;;3.25;;
52564;SDS011;38460;53.106;7.004;2022-07-01T12:32:27;4.80;;;3.10;;
52564;SDS011;38460;53.106;7.004;2022-07-01T12:35:03;4.82;;;2.38;;
52564;SDS011;38460;53.106;7.004;2022-07-01T12:37:31;4.72;;;1.88;;
52564;SDS011;38460;53.106;7.004;2022-07-01T12:39:58;3.40;;;1.30;;
52564;SDS011;38460;53.106;7.004;2022-07-01T12:42:26;4.45;;;1.77;;
52564;SDS011;38460;53.106;7.004;2022-07-01T12:47:31;3.97;;;1.90;;
52564;SDS011;38460;53.106;7.004;2022-07-01T12:57:58;5.40;;;2.13;;
52564;SDS011;38460;53.106;7.004;2022-07-01T13:00:25;4.57;;;2.10;;
52564;SDS011;38460;53.106;7.004;2022-07-01T13:02:56;4.13;;;1.70;;
52564;SDS011;38460;53.106;7.004;2022-07-01T13:05:23;4.47;;;2.23;;
52564;SDS011;38460;53.106;7.004;2022-07-01T13:07:49;3.88;;;1.60;;
52564;SDS011;38460;53.106;7.004;2022-07-01T13:10:16;4.07;;;1.83;;
52564;SDS011;38460;53.106;7.004;2022-07-01T13:12:42;3.72;;;1.40;;
52564;SDS011;38460;53.106;7.004;2022-07-01T13:15:12;1.83;;;0.80;;
52564;SDS011;38460;53.106;7.004;2022-07-01T13:17:39;4.18;;;1.40;;
52564;SDS011;38460;53.106;7.004;2022-07-01T13:20:05;2.97;;;1.05;;
52564;SDS011;38460;53.106;7.004;2022-07-01T13:22:31;2.90;;;1.10;;
52564;SDS011;38460;53.106;7.004;2022-07-01T13:24:57;3.85;;;1.20;;
52564;SDS011;38460;53.106;7.004;2022-07-01T13:27:23;2.35;;;0.98;;
52564;SDS011;38460;53.106;7.004;2022-07-01T13:29:49;4.28;;;1.35;;
52564;SDS011;38460;53.106;7.004;2022-07-01T13:32:15;4.88;;;1.50;;
52564;SDS011;38460;53.106;7.004;2022-07-01T13:34:40;3.15;;;1.00;;
52564;SDS011;38460;53.106;7.004;2022-07-01T13:37:06;2.45;;;0.85;;
52564;SDS011;38460;53.106;7.004;2022-07-01T13:39:32;1.90;;;1.00;;
52564;SDS011;38460;53.106;7.004;2022-07-01T13:41:58;2.38;;;1.00;;
52564;SDS011;38460;53.106;7.004;2022-07-01T13:44:24;2.78;;;1.02;;
52564;SDS011;38460;53.106;7.004;2022-07-01T13:46:50;3.30;;;1.10;;
52564;SDS011;38460;53.106;7.004;2022-07-01T13:49:15;2.33;;;1.15;;
52564;SDS011;38460;53.106;7.004;2022-07-01T13:51:41;2.53;;;1.02;;
52564;SDS011;38460;53.106;7.004;2022-07-01T13:54:07;2.35;;;0.98;;
52564;SDS011;38460;53.106;7.004;2022-07-01T13:56:33;2.88;;;0.88;;
52564;SDS011;38460;53.106;7.004;2022-07-01T13:58:59;3.55;;;1.00;;
52564;SDS011;38460;53.106;7.004;2022-07-01T14:01:25;3.20;;;1.13;;
52564;SDS011;38460;53.106;7.004;2022-07-01T14:03:51;2.97;;;1.10;;
52564;SDS011;38460;53.106;7.004;2022-07-01T14:06:18;3.65;;;0.90;;
52564;SDS011;38460;53.106;7.004;2022-07-01T14:08:44;2.47;;;0.98;;
52564;SDS011;38460;53.106;7.004;2022-07-01T14:11:10;0.88;;;0.63;;
52564;SDS011;38460;53.106;7.004;2022-07-01T14:13:36;4.18;;;0.93;;
52564;SDS011;38460;53.106;7.004;2022-07-01T14:16:04;7.70;;;1.33;;
52564;SDS011;38460;53.106;7.004;2022-07-01T14:18:31;2.30;;;0.88;;
52564;SDS011;38460;53.106;7.004;2022-07-01T14:20:58;3.13;;;1.10;;
52564;SDS011;38460;53.106;7.004;2022-07-01T14:23:24;3.78;;;0.90;;
52564;SDS011;38460;53.106;7.004;2022-07-01T14:25:49;2.30;;;0.82;;
52564;SDS011;38460;53.106;7.004;2022-07-01T14:28:15;2.85;;;0.90;;
52564;SDS011;38460;53.106;7.004;2022-07-01T14:30:41;2.08;;;0.82;;
52564;SDS011;38460;53.106;7.004;2022-07-01T14:33:06;3.30;;;1.10;;
52564;SDS011;38460;53.106;7.004;2022-07-01T14:35:32;3.95;;;0.98;;
52564;SDS011;38460;53.106;7.004;2022-07-01T14:37:58;1.90;;;0.85;;
52564;SDS011;38460;53.106;7.004;2022-07-01T14:40:24;3.05;;;0.90;;
52564;SDS011;38460;53.106;7.004;2022-07-01T14:42:50;3.08;;;0.95;;
52564;SDS011;38460;53.106;7.004;2022-07-01T14:45:16;2.00;;;0.85;;
52564;SDS011;38460;53.106;7.004;2022-07-01T14:47:42;4.03;;;1.27;;
52564;SDS011;38460;53.106;7.004;2022-07-01T14:50:09;2.28;;;1.13;;
52564;SDS011;38460;53.106;7.004;2022-07-01T14:52:35;5.88;;;1.42;;
52564;SDS011;38460;53.106;7.004;2022-07-01T14:55:01;3.05;;;0.90;;
52564;SDS011;38460;53.106;7.004;2022-07-01T14:57:27;2.92;;;1.13;;
52564;SDS011;38460;53.106;7.004;2022-07-01T14:59:53;3.85;;;1.17;;
52564;SDS011;38460;53.106;7.004;2022-07-01T15:02:19;2.80;;;1.27;;
52564;SDS011;38460;53.106;7.004;2022-07-01T15:04:45;3.55;;;1.05;;
52564;SDS011;38460;53.106;7.004;2022-07-01T15:07:12;4.45;;;1.23;;
52564;SDS011;38460;53.106;7.004;2022-07-01T15:09:38;3.78;;;1.10;;
52564;SDS011;38460;53.106;7.004;2022-07-01T15:12:06;2.40;;;1.17;;
52564;SDS011;38460;53.106;7.004;2022-07-01T15:14:32;3.50;;;1.20;;